createdAt,value
2023-04-02T00:00:22.962Z,152316.50
2023-04-02T00:03:03.910Z,152334.59
2023-04-02T00:05:56.210Z,152303.56
2023-04-02T00:08:30.212Z,152313.94
2023-04-02T00:11:04.895Z,152316.50
2023-04-02T00:13:42.474Z,152357.81
2023-04-02T00:16:16.819Z,152352.66
2023-04-02T00:18:53.960Z,152364.31
2023-04-02T00:21:26.255Z,152366.88
2023-04-02T00:23:58.280Z,152351.38
2023-04-02T00:26:34.721Z,152346.22
2023-04-02T00:29:07.243Z,152344.94
2023-04-02T00:31:41.310Z,152359.16
2023-04-02T00:34:19.195Z,152381.09
2023-04-02T00:36:52.258Z,152408.25
2023-04-02T00:39:30.198Z,152434.09
2023-04-02T00:42:10.268Z,152434.09
2023-04-02T00:44:43.505Z,152421.16
2023-04-02T00:47:21.468Z,152400.47
2023-04-02T00:50:05.824Z,152414.72
2023-04-02T00:52:38.745Z,152435.38
2023-04-02T00:55:16.542Z,152472.94
2023-04-02T00:57:54.750Z,152487.16
2023-04-02T01:00:30.617Z,152510.41
2023-04-02T01:03:35.377Z,152531.13
2023-04-02T01:06:11.972Z,152542.75
2023-04-02T01:09:18.597Z,152542.75
2023-04-02T01:12:13.064Z,152520.75
2023-04-02T01:14:51.619Z,152531.13
2023-04-02T01:17:32.910Z,152540.13
2023-04-02T01:20:40.158Z,152524.63
2023-04-02T01:23:14.510Z,152524.63
2023-04-02T01:25:50.198Z,152547.91
2023-04-02T01:28:24.169Z,152549.19
2023-04-02T01:31:02.968Z,152531.13
2023-04-02T01:33:39.043Z,152534.97
2023-04-02T01:36:15.453Z,152550.47
2023-04-02T01:38:54.800Z,152545.31
2023-04-02T01:41:36.822Z,152525.91
2023-04-02T01:44:12.353Z,152529.78
2023-04-02T01:46:47.826Z,152525.91
2023-04-02T01:49:22.423Z,152563.41
2023-04-02T01:52:01.598Z,152546.63
2023-04-02T01:54:38.070Z,152531.13
2023-04-02T01:57:10.903Z,152525.91
2023-04-02T01:59:45.932Z,152513.00
2023-04-02T02:02:20.063Z,152515.56
2023-04-02T02:04:51.782Z,152523.34
2023-04-02T02:07:28.798Z,152524.63
2023-04-02T02:10:02.561Z,152522.06
2023-04-02T02:12:32.417Z,152505.22
2023-04-02T02:15:02.703Z,152492.34
2023-04-02T02:17:36.171Z,152522.06
2023-04-02T02:20:12.266Z,152497.50
2023-04-02T02:22:48.110Z,152501.38
2023-04-02T02:25:22.178Z,152497.50
2023-04-02T02:28:02.169Z,152514.28
2023-04-02T02:30:36.576Z,152511.72
2023-04-02T02:33:16.544Z,152516.91
2023-04-02T02:35:53.210Z,152502.66
2023-04-02T02:38:43.832Z,152501.38
2023-04-02T02:41:26.548Z,152461.22
2023-04-02T02:44:05.473Z,152483.28
2023-04-02T02:46:39.014Z,152461.22
2023-04-02T02:49:18.661Z,152436.66
2023-04-02T02:51:52.938Z,152432.81
2023-04-02T02:54:32.907Z,152419.88
2023-04-02T02:57:07.066Z,152399.22
2023-04-02T02:59:38.021Z,152390.16
2023-04-02T03:02:10.003Z,152391.44
2023-04-02T03:04:43.430Z,152395.31
2023-04-02T03:07:19.494Z,152403.09
2023-04-02T03:09:57.532Z,152357.81
2023-04-02T03:12:39.020Z,152357.81
2023-04-02T03:15:20.363Z,152311.31
2023-04-02T03:17:57.043Z,152307.44
2023-04-02T03:20:39.789Z,152291.94
2023-04-02T03:23:20.608Z,152275.16
2023-04-02T03:25:55.359Z,152254.50
2023-04-02T03:28:31.483Z,152244.13
2023-04-02T03:31:06.150Z,152229.94
2023-04-02T03:33:41.103Z,152223.47
2023-04-02T03:36:24.071Z,152215.75
2023-04-02T03:38:59.645Z,152195.03
2023-04-02T03:41:36.125Z,152213.13
2023-04-02T03:44:15.845Z,152200.25
2023-04-02T03:46:51.265Z,152206.69
2023-04-02T03:49:28.433Z,152193.75
2023-04-02T03:52:06.637Z,152178.25
2023-04-02T03:54:39.603Z,152173.09
2023-04-02T03:57:21.517Z,152176.97
2023-04-02T04:00:00.658Z,152160.16
2023-04-02T04:02:43.612Z,152167.94
2023-04-02T04:05:26.296Z,152138.22
2023-04-02T04:08:04.499Z,152149.84
2023-04-02T04:10:35.798Z,152178.25
2023-04-02T04:13:10.320Z,152186.03
2023-04-02T04:15:45.115Z,152173.09
2023-04-02T04:18:24.487Z,152192.47
2023-04-02T04:20:59.305Z,152192.47
2023-04-02T04:23:41.478Z,152219.56
2023-04-02T04:26:24.862Z,152222.19
2023-04-02T04:29:09.916Z,152219.56
2023-04-02T04:31:47.487Z,152224.78
2023-04-02T04:34:23.815Z,152213.13
2023-04-02T04:37:02.003Z,152210.56
2023-04-02T04:39:45.548Z,152226.06
2023-04-02T04:42:23.380Z,152229.94
2023-04-02T04:45:02.138Z,152236.41
2023-04-02T04:47:35.241Z,152205.41
2023-04-02T04:50:14.550Z,152229.94
2023-04-02T04:52:46.181Z,152262.22
2023-04-02T04:55:32.906Z,152262.22
2023-04-02T04:58:11.546Z,152301.00
2023-04-02T05:00:52.095Z,152303.56
2023-04-02T05:03:32.248Z,152301.00
2023-04-02T05:06:12.821Z,152324.25
2023-04-02T05:08:48.635Z,152344.94
2023-04-02T05:11:31.646Z,152386.25
2023-04-02T05:14:06.728Z,152417.31
2023-04-02T05:16:42.732Z,152410.81
2023-04-02T05:19:18.062Z,152421.16
2023-04-02T05:21:52.619Z,152435.38
2023-04-02T05:24:49.855Z,152445.72
2023-04-02T05:27:32.023Z,152449.59
2023-04-02T05:30:08.314Z,152441.81
2023-04-02T05:32:44.275Z,152461.22
2023-04-02T05:35:25.304Z,152445.72
2023-04-02T05:37:55.988Z,152459.94
2023-04-02T05:40:33.868Z,152474.22
2023-04-02T05:43:11.746Z,152483.28
2023-04-02T05:45:49.127Z,152515.56
2023-04-02T05:48:23.397Z,152532.41
2023-04-02T05:50:57.569Z,152567.31
2023-04-02T05:53:36.454Z,152597.06
2023-04-02T05:56:13.687Z,152657.81
2023-04-02T05:58:51.138Z,152722.50
2023-04-02T06:01:39.411Z,152767.78
2023-04-02T06:04:22.925Z,152757.44
2023-04-02T06:07:00.975Z,152765.22
2023-04-02T06:09:39.133Z,152769.09
2023-04-02T06:12:36.118Z,152785.91
2023-04-02T06:15:17.234Z,152858.38
2023-04-02T06:17:51.012Z,152924.38
2023-04-02T06:20:24.216Z,152928.28
2023-04-02T06:22:58.998Z,152986.59
2023-04-02T06:25:34.412Z,152963.25
2023-04-02T06:28:09.079Z,152925.66
2023-04-02T06:30:46.338Z,152921.81
2023-04-02T06:33:17.033Z,152956.81
2023-04-02T06:35:51.327Z,152914.03
2023-04-02T06:38:32.857Z,152969.72
2023-04-02T06:41:08.424Z,152969.72
2023-04-02T06:43:50.996Z,152939.91
2023-04-02T06:46:34.267Z,152998.22
2023-04-02T06:49:17.448Z,153064.22
2023-04-02T06:51:51.166Z,153069.41
2023-04-02T06:54:22.089Z,153046.13
2023-04-02T06:56:59.256Z,153147.13
2023-04-02T06:59:50.249Z,153157.47
2023-04-02T07:02:32.282Z,153069.41
2023-04-02T07:05:09.427Z,153109.59
2023-04-02T07:07:43.256Z,153188.56
2023-04-02T07:10:16.034Z,153222.25
2023-04-02T07:12:46.281Z,153187.28
2023-04-02T07:15:19.862Z,153173.03
2023-04-02T07:17:55.072Z,153173.03
2023-04-02T07:20:31.945Z,153180.81
2023-04-02T07:23:06.160Z,153152.31
2023-04-02T07:25:36.661Z,153169.16
2023-04-02T07:28:08.753Z,153175.63
2023-04-02T07:30:39.403Z,153147.13
2023-04-02T07:33:16.657Z,153209.31
2023-04-02T07:35:47.359Z,153232.63
2023-04-02T07:38:17.644Z,153214.50
2023-04-02T07:40:48.098Z,153236.50
2023-04-02T07:43:20.831Z,153284.47
2023-04-02T07:45:52.844Z,153351.84
2023-04-02T07:48:25.921Z,153287.03
2023-04-02T07:50:58.778Z,153359.66
2023-04-02T07:53:47.521Z,153272.81
2023-04-02T07:56:24.094Z,153310.38
2023-04-02T07:58:54.003Z,153375.19
2023-04-02T08:01:26.826Z,153392.09
2023-04-02T08:04:00.935Z,153430.91
2023-04-02T08:06:31.424Z,153460.72
2023-04-02T08:09:01.806Z,153401.13
2023-04-02T08:11:32.091Z,153427.06
2023-04-02T08:14:02.314Z,153508.72
2023-04-02T08:16:48.917Z,153564.47
2023-04-02T08:19:25.382Z,153547.63
2023-04-02T08:21:55.651Z,153485.38
2023-04-02T08:24:26.514Z,153504.81
2023-04-02T08:26:56.777Z,153660.47
2023-04-02T08:29:29.473Z,153664.34
2023-04-02T08:31:59.746Z,153666.94
2023-04-02T08:34:32.677Z,153751.28
2023-04-02T08:37:03.087Z,153686.38
2023-04-02T08:39:35.525Z,153721.47
2023-04-02T08:42:09.543Z,153739.63
2023-04-02T08:44:48.618Z,153830.44
2023-04-02T08:47:26.288Z,153734.44
2023-04-02T08:50:04.689Z,153982.31
2023-04-02T08:52:37.565Z,153822.63
2023-04-02T08:55:26.265Z,153836.91
2023-04-02T08:58:04.274Z,153930.38
2023-04-02T09:00:39.742Z,154017.38
2023-04-02T09:03:13.777Z,153756.47
2023-04-02T09:05:48.881Z,153838.25
2023-04-02T09:08:22.192Z,153884.94
2023-04-02T09:10:57.954Z,153735.75
2023-04-02T09:13:30.502Z,153759.09
2023-04-02T09:16:07.841Z,153881.03
2023-04-02T09:18:38.620Z,153917.41
2023-04-02T09:21:34.765Z,153720.19
2023-04-02T09:24:05.496Z,153703.28
2023-04-02T09:26:37.356Z,153747.38
2023-04-02T09:29:35.084Z,153641.00
2023-04-02T09:32:20.206Z,153766.84
2023-04-02T09:34:50.443Z,153759.09
2023-04-02T09:37:26.073Z,153816.16
2023-04-02T09:40:12.416Z,153964.13
2023-04-02T09:42:42.621Z,153930.38
2023-04-02T09:45:18.669Z,153823.97
2023-04-02T09:47:49.039Z,153958.94
2023-04-02T09:50:35.104Z,154019.94
2023-04-02T09:53:29.353Z,154164.13
2023-04-02T09:56:12.805Z,154201.81
2023-04-02T09:58:44.320Z,154164.13
2023-04-02T10:01:36.388Z,154178.41
2023-04-02T10:04:08.743Z,154187.50
2023-04-02T10:06:39.368Z,154103.09
2023-04-02T10:09:32.862Z,154170.66
2023-04-02T10:12:06.659Z,154060.22
2023-04-02T10:14:41.126Z,154169.31
2023-04-02T10:17:17.710Z,154190.13
2023-04-02T10:19:53.655Z,154096.63
2023-04-02T10:22:26.356Z,154108.28
2023-04-02T10:25:04.284Z,154092.72
2023-04-02T10:27:40.775Z,154083.63
2023-04-02T10:30:22.378Z,154081.03
2023-04-02T10:32:58.775Z,154184.88
2023-04-02T10:35:41.332Z,154214.81
2023-04-02T10:38:32.357Z,154057.66
2023-04-02T10:41:12.099Z,154164.13
2023-04-02T10:44:19.682Z,154299.25
2023-04-02T10:47:01.109Z,154236.88
2023-04-02T10:49:39.616Z,154084.91
2023-04-02T10:52:14.517Z,153921.28
2023-04-02T10:54:49.630Z,153970.59
2023-04-02T10:57:40.815Z,153879.75
2023-04-02T11:00:21.522Z,153926.47
2023-04-02T11:02:56.923Z,154021.31
2023-04-02T11:05:37.675Z,153908.31
2023-04-02T11:08:13.773Z,153899.22
2023-04-02T11:10:49.723Z,153925.19
2023-04-02T11:13:28.637Z,153978.41
2023-04-02T11:15:59.191Z,153945.94
2023-04-02T11:18:34.407Z,154107.00
2023-04-02T11:21:06.929Z,154156.34
2023-04-02T11:23:57.772Z,154152.44
2023-04-02T11:26:53.300Z,154255.06
2023-04-02T11:29:30.343Z,154281.03
2023-04-02T11:32:16.953Z,154123.88
2023-04-02T11:35:28.908Z,154225.19
2023-04-02T11:38:01.168Z,154204.38
2023-04-02T11:40:55.568Z,154245.97
2023-04-02T11:43:52.014Z,154035.56
2023-04-02T11:46:42.387Z,153940.75
2023-04-02T11:49:41.367Z,154001.78
2023-04-02T11:52:30.420Z,154010.84
2023-04-02T11:55:16.980Z,154083.63
2023-04-02T11:57:58.759Z,154043.38
2023-04-02T12:01:12.003Z,154131.69
2023-04-02T12:04:14.541Z,154284.97
2023-04-02T12:07:00.173Z,154404.53
2023-04-02T12:09:32.848Z,154477.28
2023-04-02T12:12:18.254Z,154234.25
2023-04-02T12:14:50.849Z,154234.25
2023-04-02T12:17:28.279Z,154143.34
2023-04-02T12:20:09.632Z,154042.09
2023-04-02T12:22:43.494Z,154164.13
2023-04-02T12:25:27.154Z,154236.88
2023-04-02T12:28:08.187Z,154286.25
2023-04-02T12:30:39.264Z,154296.63
2023-04-02T12:33:20.399Z,154309.66
2023-04-02T12:35:58.533Z,154374.66
2023-04-02T12:38:30.509Z,154307.03
2023-04-02T12:41:03.748Z,154356.44
2023-04-02T12:43:35.466Z,154440.91
2023-04-02T12:46:09.028Z,154242.06
2023-04-02T12:48:39.779Z,154301.81
2023-04-02T12:51:13.921Z,154257.66
2023-04-02T12:53:45.012Z,154201.81
2023-04-02T12:56:22.844Z,154182.31
2023-04-02T12:58:57.258Z,154196.63
2023-04-02T13:01:31.860Z,154268.03
2023-04-02T13:04:07.533Z,154255.06
2023-04-02T13:06:44.846Z,154360.34
2023-04-02T13:09:33.014Z,154177.13
2023-04-02T13:12:03.765Z,154190.13
2023-04-02T13:14:34.435Z,154374.66
2023-04-02T13:17:04.659Z,154223.88
2023-04-02T13:19:36.449Z,154265.47
2023-04-02T13:22:33.521Z,154203.09
2023-04-02T13:25:04.016Z,154288.81
2023-04-02T13:27:36.042Z,154262.84
2023-04-02T13:30:11.881Z,154222.56
2023-04-02T13:32:42.612Z,154309.66
2023-04-02T13:35:12.889Z,154338.25
2023-04-02T13:37:46.471Z,154210.91
2023-04-02T13:40:18.028Z,154264.13
2023-04-02T13:42:49.778Z,154200.53
2023-04-02T13:45:27.778Z,154257.66
2023-04-02T13:48:01.278Z,154130.38
2023-04-02T13:50:31.806Z,154079.72
2023-04-02T13:53:10.647Z,154181.03
2023-04-02T13:55:45.133Z,154255.06
2023-04-02T13:58:15.329Z,154248.53
2023-04-02T14:00:46.851Z,154249.88
2023-04-02T14:03:19.847Z,154392.81
2023-04-02T14:05:58.479Z,154479.91
2023-04-02T14:08:43.594Z,154336.94
2023-04-02T14:11:30.773Z,154430.53
2023-04-02T14:14:30.516Z,154379.84
2023-04-02T14:17:13.510Z,154361.66
2023-04-02T14:19:56.544Z,154333.03
2023-04-02T14:22:38.233Z,154243.34
2023-04-02T14:25:20.926Z,154118.66
2023-04-02T14:28:02.292Z,154147.25
2023-04-02T14:30:45.087Z,154218.66
2023-04-02T14:33:23.868Z,154153.72
2023-04-02T14:35:57.747Z,154134.25
2023-04-02T14:38:36.852Z,154114.75
2023-04-02T14:41:16.891Z,154196.63
2023-04-02T14:43:51.915Z,154177.13
2023-04-02T14:46:22.440Z,154083.63
2023-04-02T14:48:57.617Z,154064.13
2023-04-02T14:51:33.350Z,153903.13
2023-04-02T14:54:10.380Z,153785.03
2023-04-02T14:56:49.508Z,153735.75
2023-04-02T14:59:28.752Z,153748.72
2023-04-02T15:02:03.302Z,153782.41
2023-04-02T15:04:38.359Z,153820.06
2023-04-02T15:07:14.728Z,153769.47
2023-04-02T15:09:52.123Z,153790.22
2023-04-02T15:12:29.792Z,153787.59
2023-04-02T15:15:05.357Z,153853.81
2023-04-02T15:17:36.435Z,153848.63
2023-04-02T15:20:16.695Z,153864.19
2023-04-02T15:22:59.993Z,153774.66
2023-04-02T15:25:37.011Z,153707.19
2023-04-02T15:28:28.304Z,153648.75
2023-04-02T15:31:01.690Z,153642.28
2023-04-02T15:33:52.358Z,153613.75
2023-04-02T15:36:44.989Z,153577.44
2023-04-02T15:39:37.141Z,153585.25
2023-04-02T15:42:24.752Z,153587.81
2023-04-02T15:45:20.573Z,153559.28
2023-04-02T15:48:04.931Z,153542.44
2023-04-02T15:50:49.896Z,153585.25
2023-04-02T15:53:33.976Z,153520.38
2023-04-02T15:56:12.085Z,153469.81
2023-04-02T15:59:03.560Z,153433.53
2023-04-02T16:01:44.454Z,153420.56
2023-04-02T16:04:46.122Z,153424.47
2023-04-02T16:07:29.289Z,153419.28
2023-04-02T16:10:10.698Z,153397.25
2023-04-02T16:12:43.804Z,153345.41
2023-04-02T16:15:23.870Z,153364.84
2023-04-02T16:18:01.801Z,153289.63
2023-04-02T16:20:34.898Z,153249.47
2023-04-02T16:23:13.269Z,153237.78
2023-04-02T16:25:53.914Z,153206.72
2023-04-02T16:28:30.162Z,153202.81
2023-04-02T16:31:08.920Z,153198.97
2023-04-02T16:33:52.380Z,153188.56
2023-04-02T16:36:33.574Z,153198.97
2023-04-02T16:39:08.698Z,153191.16
2023-04-02T16:41:55.049Z,153208.00
2023-04-02T16:44:35.471Z,153206.72
2023-04-02T16:47:20.090Z,153191.16
2023-04-02T16:49:58.311Z,153184.72
2023-04-02T16:52:43.230Z,153197.63
2023-04-02T16:55:26.396Z,153184.72
2023-04-02T16:58:05.719Z,153215.78
2023-04-02T17:00:45.585Z,153179.53
2023-04-02T17:03:32.964Z,153186.00
2023-04-02T17:06:09.830Z,153175.63
2023-04-02T17:08:46.073Z,153156.19
2023-04-02T17:11:26.289Z,153162.66
2023-04-02T17:14:06.386Z,153167.84
2023-04-02T17:16:43.955Z,153170.47
2023-04-02T17:19:16.280Z,153183.38
2023-04-02T17:21:52.309Z,153175.63
2023-04-02T17:24:28.667Z,153188.56
2023-04-02T17:27:06.582Z,153186.00
2023-04-02T17:29:40.936Z,153191.16
2023-04-02T17:32:21.456Z,153211.88
2023-04-02T17:34:51.925Z,153197.63
2023-04-02T17:37:33.165Z,153186.00
2023-04-02T17:40:13.158Z,153187.28
2023-04-02T17:42:55.187Z,153187.28
2023-04-02T17:45:32.582Z,153158.78
2023-04-02T17:48:08.770Z,153147.13
2023-04-02T17:50:54.299Z,153131.59
2023-04-02T17:53:45.857Z,153109.59
2023-04-02T17:56:37.142Z,153073.31
2023-04-02T17:59:24.099Z,152996.94
2023-04-02T18:02:07.976Z,152937.34
2023-04-02T18:04:43.007Z,152898.50
2023-04-02T18:07:37.285Z,152867.44
2023-04-02T18:10:18.609Z,152805.31
2023-04-02T18:13:00.652Z,152784.63
2023-04-02T18:16:01.908Z,152771.66
2023-04-02T18:18:52.706Z,152740.63
2023-04-02T18:21:33.828Z,152697.91
2023-04-02T18:24:42.756Z,152669.50
2023-04-02T18:27:30.207Z,152646.19
2023-04-02T18:30:10.779Z,152652.66
2023-04-02T18:33:02.931Z,152607.41
2023-04-02T18:35:36.770Z,152575.03
2023-04-02T18:38:18.920Z,152536.28
2023-04-02T18:41:11.266Z,152497.50
2023-04-02T18:43:57.617Z,152463.84
2023-04-02T18:46:35.661Z,152421.16
2023-04-02T18:49:14.278Z,152400.47
2023-04-02T18:51:44.827Z,152397.94
2023-04-02T18:54:25.457Z,152353.97
2023-04-02T18:56:55.722Z,152322.94
2023-04-02T18:59:37.676Z,152306.16
2023-04-02T19:02:33.710Z,152270.00
2023-04-02T19:05:07.501Z,152238.94
2023-04-02T19:07:42.670Z,152218.28
2023-04-02T19:10:26.398Z,152201.53
2023-04-02T19:12:56.517Z,152174.38
2023-04-02T19:15:41.687Z,152153.72
2023-04-02T19:18:19.917Z,152109.81
2023-04-02T19:21:01.729Z,152098.19
2023-04-02T19:23:44.387Z,152068.50
2023-04-02T19:26:18.966Z,152036.19
2023-04-02T19:28:59.533Z,152022.00
2023-04-02T19:31:46.951Z,152010.41
2023-04-02T19:34:25.175Z,151974.25
2023-04-02T19:37:00.120Z,151947.13
2023-04-02T19:39:56.004Z,151948.47
2023-04-02T19:42:47.093Z,151913.56
2023-04-02T19:45:34.358Z,151887.75
2023-04-02T19:48:14.900Z,151881.34
2023-04-02T19:50:47.863Z,151865.84
2023-04-02T19:53:18.335Z,151863.25
2023-04-02T19:55:49.643Z,151846.44
2023-04-02T19:58:29.054Z,151828.34
2023-04-02T20:01:00.967Z,151814.16
2023-04-02T20:03:34.034Z,151797.41
2023-04-02T20:06:04.365Z,151810.34
2023-04-02T20:08:36.409Z,151799.97
2023-04-02T20:11:07.181Z,151789.66
2023-04-02T20:13:37.971Z,151775.44
2023-04-02T20:16:09.325Z,151771.63
2023-04-02T20:18:42.168Z,151756.16
2023-04-02T20:21:12.770Z,151738.06
2023-04-02T20:23:43.149Z,151726.44
2023-04-02T20:26:14.035Z,151720.00
2023-04-02T20:28:46.426Z,151709.69
2023-04-02T20:31:19.529Z,151694.22
2023-04-02T20:33:52.523Z,151687.78
2023-04-02T20:36:22.992Z,151660.66
2023-04-02T20:38:54.064Z,151651.63
2023-04-02T20:41:24.857Z,151620.69
2023-04-02T20:43:55.224Z,151619.44
2023-04-02T20:46:25.832Z,151628.47
2023-04-02T20:48:58.843Z,151638.78
2023-04-02T20:51:29.019Z,151650.34
2023-04-02T20:53:59.210Z,151640.03
2023-04-02T20:56:29.744Z,151634.88
2023-04-02T20:58:59.994Z,151632.28
2023-04-02T21:01:31.921Z,151640.03
2023-04-02T21:04:06.334Z,151627.13
2023-04-02T21:06:39.715Z,151631.00
2023-04-02T21:09:14.733Z,151647.81
2023-04-02T21:11:45.657Z,151654.22
2023-04-02T21:14:15.819Z,151634.88
2023-04-02T21:16:46.116Z,151642.59
2023-04-02T21:19:19.049Z,151638.78
2023-04-02T21:21:49.678Z,151665.81
2023-04-02T21:24:19.894Z,151655.50
2023-04-02T21:26:50.645Z,151655.50
2023-04-02T21:29:21.266Z,151645.19
2023-04-02T21:31:54.401Z,151642.59
2023-04-02T21:34:28.642Z,151646.47
2023-04-02T21:36:58.819Z,151650.34
2023-04-02T21:39:28.995Z,151641.31
2023-04-02T21:42:01.861Z,151656.78
2023-04-02T21:44:32.192Z,151656.78
2023-04-02T21:47:02.487Z,151658.13
2023-04-02T21:49:37.115Z,151642.59
2023-04-02T21:52:08.515Z,151625.84
2023-04-02T21:54:38.713Z,151647.81
2023-04-02T21:57:08.928Z,151640.03
2023-04-02T21:59:39.413Z,151629.72
2023-04-02T22:02:09.532Z,151631.00
2023-04-02T22:04:43.914Z,151634.88
2023-04-02T22:07:14.109Z,151638.78
2023-04-02T22:09:44.275Z,151640.03
2023-04-02T22:12:14.578Z,151637.44
2023-04-02T22:14:44.788Z,151645.19
2023-04-02T22:17:15.068Z,151668.44
2023-04-02T22:19:47.901Z,151651.63
2023-04-02T22:22:20.694Z,151661.94
2023-04-02T22:24:51.196Z,151664.53
2023-04-02T22:27:21.419Z,151650.34
2023-04-02T22:29:51.897Z,151658.13
2023-04-02T22:32:22.111Z,151654.22
2023-04-02T22:34:55.287Z,151658.13
2023-04-02T22:37:25.736Z,151660.66
2023-04-02T22:39:56.594Z,151659.41
2023-04-02T22:42:27.668Z,151660.66
2023-04-02T22:44:58.480Z,151678.75
2023-04-02T22:47:29.978Z,151669.72
2023-04-02T22:50:02.748Z,151683.91
2023-04-02T22:52:32.898Z,151659.41
2023-04-02T22:55:03.141Z,151660.66
2023-04-02T22:57:33.402Z,151660.66
2023-04-02T23:00:04.093Z,151658.13
2023-04-02T23:02:34.316Z,151640.03
2023-04-02T23:05:08.096Z,151624.56
2023-04-02T23:07:38.797Z,151629.72
2023-04-02T23:10:10.015Z,151616.81
2023-04-02T23:12:40.198Z,151615.53
2023-04-02T23:15:11.677Z,151592.31
2023-04-02T23:17:41.915Z,151593.66
2023-04-02T23:20:16.051Z,151580.72
2023-04-02T23:22:46.232Z,151593.66
2023-04-02T23:25:16.513Z,151579.47
2023-04-02T23:27:46.701Z,151565.28
2023-04-02T23:30:17.211Z,151557.50
2023-04-02T23:32:47.419Z,151552.34
2023-04-02T23:35:20.383Z,151545.94
2023-04-02T23:37:52.079Z,151527.88
2023-04-02T23:40:22.417Z,151507.25
2023-04-02T23:42:52.669Z,151498.22
2023-04-02T23:45:23.200Z,151484.03
2023-04-02T23:47:53.551Z,151489.19
2023-04-02T23:50:26.344Z,151496.94
2023-04-02T23:52:56.540Z,151495.66
2023-04-02T23:55:26.791Z,151494.34
2023-04-02T23:57:57.055Z,151495.66
